Mount Stewart, Canada
Current Conditions -  °F | °C
As of 9:50 PM on Friday 24 Oct 2014 (Local Time) from CYYG Reporting Station
Rain Showers Rain Showers  
Wind Chill: 52°   Ceiling: 200
Heat Index: 52°   Visibility: 2mi
Dew Point: 52°   Wind: 12mph
Humidity: 100%   Direction: 360°N
Pressure: 29.45"   Gusts: NA
Location:  46.36°N, 62.86°W
Report Text: CYYG 250050Z 36010KT 2SM R03/4500VP6000FT/U -SHRA BR BKN002 BKN005 OVC014 11/11 A2945 RMK SF6SF1SC1 SLP973 DENSITY ALT 200FT
Loading
Personal Weather Stations






























Interactive Weather Map
Tropical Storm Tracking
New forecast layout! Learn more

10-Day Weather Forecast

Advertisements
Track Severe Weather on mobile